Mako, Hungary
Current Conditions -  °F | °C
As of 11:15 AM on Friday 28 Nov 2014 (Local Time) from LHUD Reporting Station
Haze Haze  
Wind Chill: 31°   Ceiling: 2000
Heat Index: 36°   Visibility: 2.1mi
Dew Point: 34°   Wind: 6mph
Humidity: 93%   Direction: 100°E
Pressure: 30.12"   Gusts: NA
Location:  46.22°N, 20.47°E
Report Text: LHUD 280915Z 10005KT 3500 BR OVC020 02/01 Q1020
Loading
Personal Weather Stations






























Interactive Weather Map New forecast layout! Learn more

10-Day Weather Forecast

Advertisements
Track Severe Weather on mobile